Portada
METAR-TAF:

METAR-TAF

Aeroports :

Kanoya, Japó

latitud: 31-22N, longitud: 130-50E, altitud: 65 m

Observació

L'informe es va fer fa 6 hores i 8 minuts, a les 22:31 UTC
Vent 7 kt del Nord-Est, variant entre Nord i Est
Temperatura 20°C
Humitat 83%
Pressió 1011 hPa
Visibilitat: 5000 m
Escasses núvols a una alçada de 1500 ft
Núvols disperses a una alçada de 2500 ft
Cel ennuvolat a una alçada de 3500 ft
pluja, boirina

METAR: RJFY 202231Z 05007KT 010V100 5000 -RA BR FEW015 SCT025 BKN035 20/17 Q1011 RMK 1CU015 3CU025 6SC035 A2987

Hora: 13:39 (04:39 UTC)


TAF: manca

Observacions i pronòstics meteorològics de més de 4000 aeroports (METAR i TAF).

Les estacions disponibles són els punts grocs i vermells al mapa.

Posi el ratolí al punt desitjat per veure el nom de l'estació.

Feu clic per veure les observacions i els pronòstics meteorològics.

Per canviar el mapa: feu clic els botons verds amb una creu de color negre per apropar; al botó verd amb un guió per allunyar la imatge; o en les fletxes verdes per a mapes adjacents.


METAR-TAF: